createdAt,value
2017-11-30T00:01:43.238Z,98767.61
2017-11-30T00:04:15.219Z,98763.39
2017-11-30T00:06:47.149Z,98762.94
2017-11-30T00:09:19.953Z,98765.61
2017-11-30T00:11:51.610Z,98760.98
2017-11-30T00:14:23.597Z,98763.16
2017-11-30T00:16:56.528Z,98758.66
2017-11-30T00:19:29.238Z,98756.20
2017-11-30T00:22:00.944Z,98743.78
2017-11-30T00:24:32.733Z,98749.68
2017-11-30T00:27:04.496Z,98748.38
2017-11-30T00:29:36.883Z,98748.34
2017-11-30T00:32:09.355Z,98745.96
2017-11-30T00:34:41.130Z,98748.20
2017-11-30T00:37:12.917Z,98742.66
2017-11-30T00:39:45.557Z,98734.40
2017-11-30T00:42:26.769Z,98739.61
2017-11-30T00:44:59.229Z,98731.73
2017-11-30T00:47:31.420Z,98737.80
2017-11-30T00:50:04.037Z,98737.73
2017-11-30T00:52:35.708Z,98739.88
2017-11-30T00:55:08.867Z,98743.53
2017-11-30T00:57:40.425Z,98738.52
2017-11-30T01:00:15.609Z,98739.88
2017-11-30T01:02:47.262Z,98736.63
2017-11-30T01:05:19.253Z,98739.45
2017-11-30T01:07:51.886Z,98737.07
2017-11-30T01:10:24.293Z,98737.17
2017-11-30T01:12:55.978Z,98734.42
2017-11-30T01:15:28.009Z,98734.13
2017-11-30T01:18:00.015Z,98737.95
2017-11-30T01:20:31.903Z,98738.05
2017-11-30T01:23:04.637Z,98735.45
2017-11-30T01:25:36.571Z,98739.82
2017-11-30T01:28:08.589Z,98733.77
2017-11-30T01:30:40.403Z,98739.94
2017-11-30T01:33:12.207Z,98734.34
2017-11-30T01:35:44.263Z,98742.98
2017-11-30T01:38:16.110Z,98738.23
2017-11-30T01:40:47.921Z,98734.29
2017-11-30T01:43:19.987Z,98736.64
2017-11-30T01:45:52.218Z,98733.93
2017-11-30T01:48:23.788Z,98733.38
2017-11-30T01:50:55.585Z,98729.08
2017-11-30T01:53:28.515Z,98725.78
2017-11-30T01:56:00.346Z,98729.83
2017-11-30T01:58:32.556Z,98720.20
2017-11-30T02:01:04.630Z,98719.61
2017-11-30T02:03:36.392Z,98724.96
2017-11-30T02:06:07.996Z,98724.44
2017-11-30T02:08:39.743Z,98721.14
2017-11-30T02:11:12.447Z,98724.30
2017-11-30T02:13:44.398Z,98721.91
2017-11-30T02:16:16.255Z,98721.64
2017-11-30T02:18:49.179Z,98725.06
2017-11-30T02:21:21.960Z,98725.60
2017-11-30T02:23:53.764Z,98719.00
2017-11-30T02:26:26.670Z,98712.19
2017-11-30T02:28:58.510Z,98716.80
2017-11-30T02:31:30.283Z,98712.30
2017-11-30T02:34:02.807Z,98715.56
2017-11-30T02:36:35.728Z,98709.70
2017-11-30T02:39:07.358Z,98704.49
2017-11-30T02:41:39.200Z,98702.17
2017-11-30T02:44:10.792Z,98702.63
2017-11-30T02:46:43.388Z,98702.72
2017-11-30T02:49:15.016Z,98706.37
2017-11-30T02:51:47.886Z,98705.66
2017-11-30T02:54:20.513Z,98701.13
2017-11-30T02:56:52.694Z,98703.16
2017-11-30T02:59:24.576Z,98700.80
2017-11-30T03:01:56.261Z,98699.18
2017-11-30T03:04:28.159Z,98693.93
2017-11-30T03:07:00.584Z,98696.45
2017-11-30T03:09:33.308Z,98690.05
2017-11-30T03:12:08.221Z,98686.91
2017-11-30T03:14:40.962Z,98689.63
2017-11-30T03:17:13.668Z,98693.78
2017-11-30T03:19:45.412Z,98692.83
2017-11-30T03:22:18.153Z,98683.22
2017-11-30T03:24:49.989Z,98692.27
2017-11-30T03:27:23.009Z,98692.74
2017-11-30T03:29:55.622Z,98691.22
2017-11-30T03:32:30.039Z,98687.80
2017-11-30T03:35:03.024Z,98683.10
2017-11-30T03:37:37.810Z,98688.82
2017-11-30T03:40:09.630Z,98688.17
2017-11-30T03:42:42.772Z,98688.45
2017-11-30T03:45:16.713Z,98688.41
2017-11-30T03:47:48.470Z,98685.70
2017-11-30T03:50:20.683Z,98680.22
2017-11-30T03:52:53.576Z,98682.69
2017-11-30T03:55:26.264Z,98679.16
2017-11-30T03:58:00.737Z,98684.45
2017-11-30T04:00:32.738Z,98683.10
2017-11-30T04:03:06.582Z,98683.52
2017-11-30T04:05:38.342Z,98693.18
2017-11-30T04:08:11.608Z,98690.63
2017-11-30T04:10:44.290Z,98682.90
2017-11-30T04:13:18.376Z,98690.83
2017-11-30T04:15:53.139Z,98690.64
2017-11-30T04:18:25.537Z,98690.02
2017-11-30T04:20:59.930Z,98689.29
2017-11-30T04:23:31.939Z,98694.67
2017-11-30T04:26:04.357Z,98692.85
2017-11-30T04:28:37.512Z,98692.69
2017-11-30T04:31:09.193Z,98695.50
2017-11-30T04:33:41.672Z,98700.53
2017-11-30T04:36:13.128Z,98700.55
2017-11-30T04:38:44.592Z,98702.21
2017-11-30T04:41:17.058Z,98707.30
2017-11-30T04:43:48.394Z,98697.76
2017-11-30T04:46:20.290Z,98702.51
2017-11-30T04:48:52.591Z,98703.13
2017-11-30T04:51:24.863Z,98700.45
2017-11-30T04:53:57.131Z,98704.61
2017-11-30T04:56:29.756Z,98707.06
2017-11-30T04:59:02.667Z,98710.58
2017-11-30T05:01:34.502Z,98703.95
2017-11-30T05:04:06.115Z,98705.95
2017-11-30T05:06:37.568Z,98704.87
2017-11-30T05:09:09.820Z,98700.23
2017-11-30T05:11:42.140Z,98697.91
2017-11-30T05:14:13.959Z,98694.05
2017-11-30T05:16:46.605Z,98692.91
2017-11-30T05:19:17.945Z,98696.70
2017-11-30T05:21:49.664Z,98695.52
2017-11-30T05:24:20.994Z,98699.39
2017-11-30T05:26:52.427Z,98703.57
2017-11-30T05:29:24.147Z,98709.50
2017-11-30T05:31:55.730Z,98709.58
2017-11-30T05:34:27.476Z,98705.31
2017-11-30T05:37:00.838Z,98706.02
2017-11-30T05:39:32.458Z,98699.70
2017-11-30T05:42:03.851Z,98698.09
2017-11-30T05:44:35.223Z,98692.34
2017-11-30T05:47:07.271Z,98700.83
2017-11-30T05:49:38.654Z,98700.75
2017-11-30T05:52:10.150Z,98706.17
2017-11-30T05:54:41.750Z,98708.02
2017-11-30T05:57:13.181Z,98701.74
2017-11-30T05:59:45.752Z,98695.27
2017-11-30T06:02:17.942Z,98699.92
2017-11-30T06:04:50.259Z,98697.34
2017-11-30T06:07:21.660Z,98699.09
2017-11-30T06:09:53.041Z,98695.78
2017-11-30T06:12:23.940Z,98697.02
2017-11-30T06:14:55.350Z,98702.30
2017-11-30T06:17:28.137Z,98707.44
2017-11-30T06:19:59.824Z,98709.81
2017-11-30T06:22:31.277Z,98709.75
2017-11-30T06:25:03.770Z,98705.52
2017-11-30T06:27:35.731Z,98710.52
2017-11-30T06:30:08.102Z,98717.72
2017-11-30T06:32:39.795Z,98709.34
2017-11-30T06:35:11.195Z,98707.07
2017-11-30T06:37:43.559Z,98711.94
2017-11-30T06:40:14.935Z,98710.08
2017-11-30T06:42:46.387Z,98713.55
2017-11-30T06:45:19.046Z,98705.33
2017-11-30T06:47:50.516Z,98709.28
2017-11-30T06:50:22.100Z,98707.52
2017-11-30T06:52:53.683Z,98707.63
2017-11-30T06:55:27.240Z,98710.02
2017-11-30T06:58:00.294Z,98713.10
2017-11-30T07:00:32.592Z,98715.84
2017-11-30T07:03:04.809Z,98712.31
2017-11-30T07:05:36.492Z,98717.03
2017-11-30T07:08:07.915Z,98720.36
2017-11-30T07:10:39.323Z,98720.43
2017-11-30T07:13:11.121Z,98730.72
2017-11-30T07:15:42.503Z,98728.95
2017-11-30T07:18:13.980Z,98728.64
2017-11-30T07:20:45.677Z,98731.17
2017-11-30T07:23:17.206Z,98731.66
2017-11-30T07:25:48.658Z,98732.31
2017-11-30T07:28:20.145Z,98730.53
2017-11-30T07:30:51.898Z,98729.47
2017-11-30T07:33:23.711Z,98734.16
2017-11-30T07:35:54.327Z,98736.20
2017-11-30T07:38:25.760Z,98740.42
2017-11-30T07:40:57.148Z,98739.86
2017-11-30T07:43:29.521Z,98740.27
2017-11-30T07:46:02.025Z,98740.66
2017-11-30T07:48:34.433Z,98738.35
2017-11-30T07:51:07.687Z,98737.81
2017-11-30T07:53:39.985Z,98738.72
2017-11-30T07:56:12.331Z,98734.50
2017-11-30T07:58:44.400Z,98732.89
2017-11-30T08:01:16.217Z,98737.13
2017-11-30T08:03:47.861Z,98738.23
2017-11-30T08:06:19.957Z,98737.60
2017-11-30T08:08:51.374Z,98735.21
2017-11-30T08:11:22.817Z,98742.41
2017-11-30T08:13:54.179Z,98740.55
2017-11-30T08:16:25.590Z,98743.96
2017-11-30T08:18:56.962Z,98737.24
2017-11-30T08:21:30.337Z,98736.69
2017-11-30T08:24:01.848Z,98731.69
2017-11-30T08:26:34.107Z,98734.08
2017-11-30T08:29:05.655Z,98738.53
2017-11-30T08:31:38.194Z,98736.89
2017-11-30T08:34:10.602Z,98733.31
2017-11-30T08:36:42.102Z,98744.27
2017-11-30T08:39:14.552Z,98742.95
2017-11-30T08:41:46.896Z,98741.08
2017-11-30T08:44:18.491Z,98743.91
2017-11-30T08:46:50.352Z,98748.07
2017-11-30T08:49:23.647Z,98743.63
2017-11-30T08:51:55.141Z,98738.39
2017-11-30T08:54:27.436Z,98746.45
2017-11-30T08:57:00.568Z,98748.00
2017-11-30T08:59:32.110Z,98749.87
2017-11-30T09:02:04.945Z,98756.16
2017-11-30T09:04:37.303Z,98754.09
2017-11-30T09:07:09.640Z,98754.23
2017-11-30T09:09:41.944Z,98744.21
2017-11-30T09:12:12.560Z,98742.26
2017-11-30T09:14:44.979Z,98740.92
2017-11-30T09:17:16.144Z,98737.70
2017-11-30T09:19:46.749Z,98744.43
2017-11-30T09:22:17.333Z,98747.34
2017-11-30T09:24:49.683Z,98753.83
2017-11-30T09:27:22.048Z,98758.10
2017-11-30T09:29:54.415Z,98749.67
2017-11-30T09:32:25.182Z,98744.98
2017-11-30T09:34:57.585Z,98748.63
2017-11-30T09:37:29.998Z,98752.06
2017-11-30T09:40:02.169Z,98750.95
2017-11-30T09:42:32.846Z,98752.06
2017-11-30T09:45:06.386Z,98759.59
2017-11-30T09:47:39.802Z,98763.00
2017-11-30T09:50:12.246Z,98753.27
2017-11-30T09:52:44.945Z,98753.75
2017-11-30T09:55:15.540Z,98758.03
2017-11-30T09:57:46.188Z,98756.90
2017-11-30T10:00:18.570Z,98754.05
2017-11-30T10:02:49.529Z,98747.97
2017-11-30T10:05:21.949Z,98741.44
2017-11-30T10:07:52.900Z,98736.16
2017-11-30T10:10:25.271Z,98734.97
2017-11-30T10:12:57.715Z,98730.41
2017-11-30T10:15:30.800Z,98733.47
2017-11-30T10:18:01.344Z,98727.22
2017-11-30T10:20:34.617Z,98726.71
2017-11-30T10:23:07.051Z,98725.25
2017-11-30T10:25:38.459Z,98726.34
2017-11-30T10:28:10.849Z,98721.64
2017-11-30T10:30:42.998Z,98725.52
2017-11-30T10:33:16.366Z,98727.76
2017-11-30T10:35:49.093Z,98724.66
2017-11-30T10:38:21.509Z,98724.01
2017-11-30T10:40:52.094Z,98726.34
2017-11-30T10:43:24.921Z,98728.55
2017-11-30T10:45:57.640Z,98725.86
2017-11-30T10:48:28.536Z,98721.67
2017-11-30T10:50:59.131Z,98722.71
2017-11-30T10:53:31.810Z,98722.45
2017-11-30T10:56:03.757Z,98724.89
2017-11-30T10:58:34.414Z,98718.44
2017-11-30T11:01:04.977Z,98715.64
2017-11-30T11:03:37.389Z,98714.98
2017-11-30T11:06:09.718Z,98709.52
2017-11-30T11:08:41.518Z,98704.08
2017-11-30T11:11:13.937Z,98699.68
2017-11-30T11:13:46.430Z,98695.08
2017-11-30T11:16:18.138Z,98693.76
2017-11-30T11:18:50.813Z,98693.33
2017-11-30T11:21:23.316Z,98692.44
2017-11-30T11:23:55.619Z,98687.80
2017-11-30T11:26:28.288Z,98686.87
2017-11-30T11:29:00.305Z,98694.12
2017-11-30T11:31:31.805Z,98692.02
2017-11-30T11:34:04.361Z,98687.02
2017-11-30T11:36:37.347Z,98692.94
2017-11-30T11:39:09.751Z,98689.39
2017-11-30T11:41:41.298Z,98691.05
2017-11-30T11:44:12.851Z,98690.43
2017-11-30T11:46:44.807Z,98691.84
2017-11-30T11:49:17.493Z,98691.05
2017-11-30T11:51:48.929Z,98691.97
2017-11-30T11:54:21.374Z,98691.92
2017-11-30T11:56:54.244Z,98689.99
2017-11-30T11:59:25.764Z,98689.93
2017-11-30T12:01:58.082Z,98687.58
2017-11-30T12:04:30.819Z,98691.22
2017-11-30T12:07:03.956Z,98694.39
2017-11-30T12:09:35.444Z,98689.75
2017-11-30T12:12:07.827Z,98692.68
2017-11-30T12:14:39.587Z,98685.70
2017-11-30T12:17:12.432Z,98686.42
2017-11-30T12:19:43.918Z,98689.79
2017-11-30T12:22:15.711Z,98674.53
2017-11-30T12:24:48.032Z,98680.63
2017-11-30T12:27:19.533Z,98690.46
2017-11-30T12:29:51.006Z,98683.78
2017-11-30T12:32:22.795Z,98684.08
2017-11-30T12:34:54.393Z,98685.83
2017-11-30T12:37:25.976Z,98684.27
2017-11-30T12:39:57.472Z,98682.39
2017-11-30T12:42:30.095Z,98677.31
2017-11-30T12:45:06.228Z,98681.69
2017-11-30T12:47:37.768Z,98670.95
2017-11-30T12:50:09.204Z,98667.71
2017-11-30T12:52:41.824Z,98673.66
2017-11-30T12:55:14.331Z,98669.83
2017-11-30T12:57:45.775Z,98668.08
2017-11-30T13:00:17.404Z,98662.66
2017-11-30T13:02:49.218Z,98661.70
2017-11-30T13:05:20.799Z,98666.69
2017-11-30T13:07:52.314Z,98660.20
2017-11-30T13:10:23.860Z,98661.27
2017-11-30T13:12:55.336Z,98661.85
2017-11-30T13:15:27.828Z,98663.09
2017-11-30T13:18:00.220Z,98666.64
2017-11-30T13:20:31.649Z,98661.06
2017-11-30T13:23:03.305Z,98658.48
2017-11-30T13:25:36.547Z,98658.44
2017-11-30T13:28:09.053Z,98654.14
2017-11-30T13:30:41.356Z,98658.86
2017-11-30T13:33:12.852Z,98656.53
2017-11-30T13:35:44.392Z,98656.55
2017-11-30T13:38:17.132Z,98652.67
2017-11-30T13:40:48.604Z,98657.36
2017-11-30T13:43:21.317Z,98654.90
2017-11-30T13:45:54.166Z,98649.77
2017-11-30T13:48:25.575Z,98650.73
2017-11-30T13:50:56.990Z,98652.56
2017-11-30T13:53:29.293Z,98650.80
2017-11-30T13:56:01.786Z,98647.20
2017-11-30T13:58:33.251Z,98637.31
2017-11-30T14:01:05.762Z,98642.09
2017-11-30T14:03:37.307Z,98639.61
2017-11-30T14:06:09.553Z,98636.78
2017-11-30T14:08:40.939Z,98638.33
2017-11-30T14:11:12.485Z,98641.12
2017-11-30T14:13:44.127Z,98643.25
2017-11-30T14:16:16.587Z,98640.55
2017-11-30T14:18:48.162Z,98636.12
2017-11-30T14:21:19.649Z,98640.06
2017-11-30T14:23:51.201Z,98638.45
2017-11-30T14:26:23.555Z,98637.37
2017-11-30T14:28:55.092Z,98636.66
2017-11-30T14:31:26.550Z,98649.46
2017-11-30T14:33:58.395Z,98642.72
2017-11-30T14:36:33.440Z,98644.98
2017-11-30T14:39:06.759Z,98642.78
2017-11-30T14:41:39.033Z,98648.97
2017-11-30T14:44:10.842Z,98643.52
2017-11-30T14:46:42.247Z,98641.95
2017-11-30T14:49:14.663Z,98640.49
2017-11-30T14:51:45.998Z,98642.08
2017-11-30T14:54:17.446Z,98644.85
2017-11-30T14:56:48.806Z,98642.27
2017-11-30T14:59:20.614Z,98644.05
2017-11-30T15:01:52.487Z,98642.72
2017-11-30T15:04:25.247Z,98651.48
2017-11-30T15:06:57.092Z,98650.53
2017-11-30T15:09:29.609Z,98652.67
2017-11-30T15:12:01.585Z,98657.92
2017-11-30T15:14:33.834Z,98657.20
2017-11-30T15:17:05.344Z,98659.07
2017-11-30T15:19:37.746Z,98661.22
2017-11-30T15:22:10.848Z,98658.89
2017-11-30T15:24:42.383Z,98659.07
2017-11-30T15:27:14.791Z,98656.19
2017-11-30T15:29:47.289Z,98660.13
2017-11-30T15:32:19.862Z,98664.67
2017-11-30T15:34:51.318Z,98671.11
2017-11-30T15:37:24.140Z,98668.02
2017-11-30T15:39:55.540Z,98664.92
2017-11-30T15:42:27.998Z,98664.69
2017-11-30T15:45:04.191Z,98664.59
2017-11-30T15:47:36.912Z,98661.34
2017-11-30T15:50:09.615Z,98667.73
2017-11-30T15:52:41.510Z,98671.28
2017-11-30T15:55:16.616Z,98670.03
2017-11-30T15:57:49.025Z,98666.97
2017-11-30T16:00:22.008Z,98666.98
2017-11-30T16:02:54.274Z,98666.22
2017-11-30T16:05:25.802Z,98664.30
2017-11-30T16:07:58.180Z,98667.70
2017-11-30T16:10:30.830Z,98667.30
2017-11-30T16:13:02.177Z,98667.36
2017-11-30T16:15:35.377Z,98667.48
2017-11-30T16:18:07.012Z,98669.18
2017-11-30T16:20:38.528Z,98671.36
2017-11-30T16:23:10.877Z,98671.48
2017-11-30T16:25:46.156Z,98669.95
2017-11-30T16:28:20.249Z,98675.95
2017-11-30T16:30:54.851Z,98673.78
2017-11-30T16:33:28.329Z,98673.41
2017-11-30T16:36:02.331Z,98673.80
2017-11-30T16:38:34.651Z,98673.67
2017-11-30T16:41:08.292Z,98674.36
2017-11-30T16:43:40.784Z,98678.12
2017-11-30T16:46:12.446Z,98675.31
2017-11-30T16:48:43.929Z,98676.09
2017-11-30T16:51:17.551Z,98680.03
2017-11-30T16:53:51.527Z,98681.67
2017-11-30T16:56:23.570Z,98681.66
2017-11-30T16:58:55.983Z,98678.47
2017-11-30T17:01:29.199Z,98682.40
2017-11-30T17:04:04.195Z,98678.62
2017-11-30T17:06:37.518Z,98679.48
2017-11-30T17:09:08.945Z,98688.16
2017-11-30T17:11:43.009Z,98687.30
2017-11-30T17:14:15.628Z,98690.45
2017-11-30T17:16:49.542Z,98691.94
2017-11-30T17:19:22.761Z,98696.48
2017-11-30T17:21:54.294Z,98692.70
2017-11-30T17:24:27.856Z,98692.64
2017-11-30T17:27:01.213Z,98691.81
2017-11-30T17:29:35.619Z,98690.70
2017-11-30T17:32:08.887Z,98690.00
2017-11-30T17:34:41.200Z,98694.04
2017-11-30T17:37:15.629Z,98697.30
2017-11-30T17:39:49.273Z,98698.82
2017-11-30T17:42:22.614Z,98703.75
2017-11-30T17:44:56.575Z,98703.80
2017-11-30T17:47:31.042Z,98702.97
2017-11-30T17:50:05.601Z,98702.59
2017-11-30T17:52:38.898Z,98707.03
2017-11-30T17:55:12.242Z,98704.73
2017-11-30T17:57:45.524Z,98703.13
2017-11-30T18:00:19.511Z,98712.04
2017-11-30T18:02:52.851Z,98711.09
2017-11-30T18:05:26.761Z,98714.74
2017-11-30T18:07:59.960Z,98705.55
2017-11-30T18:10:33.594Z,98712.73
2017-11-30T18:13:06.853Z,98715.45
2017-11-30T18:15:40.526Z,98718.56
2017-11-30T18:18:14.021Z,98717.62
2017-11-30T18:20:48.398Z,98714.22
2017-11-30T18:23:21.884Z,98715.86
2017-11-30T18:25:55.241Z,98720.87
2017-11-30T18:28:28.495Z,98721.00
2017-11-30T18:31:03.077Z,98719.55
2017-11-30T18:33:36.626Z,98723.44
2017-11-30T18:36:10.264Z,98727.80
2017-11-30T18:38:43.694Z,98728.87
2017-11-30T18:41:18.631Z,98732.11
2017-11-30T18:43:50.235Z,98731.27
2017-11-30T18:46:23.328Z,98732.02
2017-11-30T18:48:55.199Z,98735.66
2017-11-30T18:51:29.475Z,98734.70
2017-11-30T18:54:03.909Z,98737.59
2017-11-30T18:56:36.888Z,98735.94
2017-11-30T18:59:10.620Z,98735.45
2017-11-30T19:01:44.768Z,98738.95
2017-11-30T19:04:18.307Z,98734.06
2017-11-30T19:06:51.684Z,98740.64
2017-11-30T19:09:24.300Z,98743.52
2017-11-30T19:11:56.670Z,98747.05
2017-11-30T19:14:29.351Z,98745.03
2017-11-30T19:17:03.125Z,98753.05
2017-11-30T19:19:37.487Z,98756.59
2017-11-30T19:22:10.902Z,98763.21
2017-11-30T19:24:43.839Z,98768.08
2017-11-30T19:27:17.136Z,98766.69
2017-11-30T19:29:51.570Z,98773.20
2017-11-30T19:32:25.172Z,98764.44
2017-11-30T19:34:59.593Z,98761.08
2017-11-30T19:37:33.430Z,98766.25
2017-11-30T19:40:07.055Z,98767.26
2017-11-30T19:42:40.316Z,98769.67
2017-11-30T19:45:15.121Z,98763.22
2017-11-30T19:47:48.527Z,98767.58
2017-11-30T19:50:22.158Z,98773.53
2017-11-30T19:52:55.484Z,98774.55
2017-11-30T19:55:29.020Z,98770.06
2017-11-30T19:58:02.930Z,98773.73
2017-11-30T20:00:36.666Z,98776.53
2017-11-30T20:03:10.073Z,98771.88
2017-11-30T20:05:43.439Z,98778.05
2017-11-30T20:08:16.741Z,98783.94
2017-11-30T20:10:50.352Z,98778.55
2017-11-30T20:13:23.773Z,98785.18
2017-11-30T20:15:57.528Z,98790.25
2017-11-30T20:18:30.833Z,98792.61
2017-11-30T20:21:05.153Z,98797.13
2017-11-30T20:23:38.529Z,98793.08
2017-11-30T20:26:12.132Z,98803.59
2017-11-30T20:28:45.446Z,98796.34
2017-11-30T20:31:18.965Z,98796.57
2017-11-30T20:33:52.281Z,98798.53
2017-11-30T20:36:25.860Z,98806.22
2017-11-30T20:38:59.173Z,98802.94
2017-11-30T20:41:33.151Z,98799.57
2017-11-30T20:44:06.369Z,98802.63
2017-11-30T20:46:39.978Z,98805.97
2017-11-30T20:49:13.960Z,98799.62
2017-11-30T20:51:47.339Z,98804.17
2017-11-30T20:54:20.610Z,98809.95
2017-11-30T20:56:53.356Z,98811.11
2017-11-30T20:59:24.785Z,98804.80
2017-11-30T21:01:56.215Z,98804.17
2017-11-30T21:04:27.945Z,98812.91
2017-11-30T21:06:59.395Z,98812.14
2017-11-30T21:09:32.204Z,98818.82
2017-11-30T21:12:07.342Z,98820.45
2017-11-30T21:14:39.027Z,98822.05
2017-11-30T21:17:12.643Z,98821.41
2017-11-30T21:19:45.279Z,98821.69
2017-11-30T21:22:17.672Z,98818.75
2017-11-30T21:24:50.128Z,98823.68
2017-11-30T21:27:22.862Z,98818.72
2017-11-30T21:29:57.035Z,98821.05
2017-11-30T21:32:28.935Z,98821.80
2017-11-30T21:35:04.689Z,98833.36
2017-11-30T21:37:37.417Z,98828.07
2017-11-30T21:40:09.838Z,98842.56
2017-11-30T21:42:44.372Z,98843.73
2017-11-30T21:45:18.407Z,98837.68
2017-11-30T21:47:50.833Z,98846.35
2017-11-30T21:50:24.510Z,98851.67
2017-11-30T21:52:58.637Z,98849.90
2017-11-30T21:55:31.153Z,98849.83
2017-11-30T21:58:04.808Z,98849.19
2017-11-30T22:00:36.350Z,98846.78
2017-11-30T22:03:08.908Z,98846.67
2017-11-30T22:05:43.028Z,98853.23
2017-11-30T22:08:16.646Z,98848.28
2017-11-30T22:10:50.756Z,98861.55
2017-11-30T22:13:24.908Z,98860.52
2017-11-30T22:15:57.662Z,98862.30
2017-11-30T22:18:31.359Z,98855.85
2017-11-30T22:21:05.676Z,98862.81
2017-11-30T22:23:38.126Z,98863.20
2017-11-30T22:26:12.277Z,98864.95
2017-11-30T22:28:46.574Z,98865.64
2017-11-30T22:31:19.403Z,98863.74
2017-11-30T22:33:52.903Z,98872.08
2017-11-30T22:36:27.922Z,98874.48
2017-11-30T22:39:01.297Z,98869.68
2017-11-30T22:41:34.537Z,98865.70
2017-11-30T22:44:08.667Z,98874.25
2017-11-30T22:46:41.970Z,98880.83
2017-11-30T22:49:15.517Z,98873.66
2017-11-30T22:51:48.803Z,98876.88
2017-11-30T22:54:22.085Z,98879.29
2017-11-30T22:56:55.374Z,98881.59
2017-11-30T22:59:29.047Z,98885.48
2017-11-30T23:02:03.613Z,98886.84
2017-11-30T23:04:37.182Z,98897.02
2017-11-30T23:07:10.408Z,98894.21
2017-11-30T23:09:43.749Z,98891.11
2017-11-30T23:12:17.002Z,98894.64
2017-11-30T23:14:50.542Z,98890.58
2017-11-30T23:17:23.796Z,98894.52
2017-11-30T23:19:57.798Z,98897.05
2017-11-30T23:22:31.102Z,98897.25
2017-11-30T23:25:05.059Z,98889.73
2017-11-30T23:27:39.073Z,98903.30
2017-11-30T23:30:14.229Z,98895.41
2017-11-30T23:32:47.425Z,98898.18
2017-11-30T23:35:21.051Z,98900.46
2017-11-30T23:37:54.289Z,98898.38
2017-11-30T23:40:27.785Z,98907.63
2017-11-30T23:43:01.053Z,98913.47
2017-11-30T23:45:34.385Z,98909.61
2017-11-30T23:48:07.610Z,98912.16
2017-11-30T23:50:41.207Z,98919.95
2017-11-30T23:53:16.055Z,98921.14
2017-11-30T23:55:50.176Z,98913.77
2017-11-30T23:58:24.147Z,98917.84
